GB-0574 weather

CLOSED RNAS HMS Tern Air Base
Twatt, Scotland, United Kingdom

Public forecast

Using degrees Celsius for public forecast. Weather courtesy of forecast.io.

METAR (pilot weather report)

Closest report is Kirkwall Airport, 14.1 nm (26.2 km) ESE. Retrieved 2019/05/27 00:20 UTC (30 minutes ago):

EGPA 270020Z AUTO 35010KT 9999 SCT020/// BKN030/// BKN042/// 07/05 Q1004

TAF (pilot weather forecast)

Forecast is more than 12 hours old.

Closest forecast is RAF Lossiemouth, 83.1 nm (153.9 km) S. Retrieved 2019/05/26 00:36 UTC (1 day ago):

TAF EGQS 262225Z 2700/2718 03018KT 9999 -RA FEW010 BKN025 TEMPO 2700/2704 4000 RA SCT010 OVC024 PROB40 TEMPO 2700/2703 05022G35KT 2000 +RADZ SCT004 BKN010 BECMG 2703/2707 01008KT PROB30 TEMPO 2704/2714 4000 SHRA SHGS SCT012 PROB30 TEMPO 2714/2718 7000 -SHRA SCT018